createdAt,value
2023-05-21T00:01:07.129Z,87.00
2023-05-21T00:03:36.206Z,86.61
2023-05-21T00:06:04.040Z,87.80
2023-05-21T00:08:31.097Z,87.56
2023-05-21T00:10:58.186Z,88.15
2023-05-21T00:13:25.105Z,87.89
2023-05-21T00:15:51.863Z,87.78
2023-05-21T00:18:18.521Z,88.58
2023-05-21T00:20:45.767Z,88.87
2023-05-21T00:23:12.736Z,88.65
2023-05-21T00:25:39.462Z,88.65
2023-05-21T00:28:06.071Z,88.75
2023-05-21T00:30:32.671Z,88.58
2023-05-21T00:33:02.497Z,89.20
2023-05-21T00:35:29.713Z,89.39
2023-05-21T00:37:56.371Z,88.44
2023-05-21T00:40:23.254Z,89.66
2023-05-21T00:42:49.934Z,89.35
2023-05-21T00:45:16.707Z,88.98
2023-05-21T00:47:43.908Z,89.82
2023-05-21T00:50:11.830Z,89.65
2023-05-21T00:52:42.158Z,89.69
2023-05-21T00:55:09.996Z,90.30
2023-05-21T00:57:39.300Z,90.82
2023-05-21T01:00:08.793Z,90.51
2023-05-21T01:02:37.316Z,91.13
2023-05-21T01:05:08.211Z,91.28
2023-05-21T01:07:36.506Z,91.21
2023-05-21T01:10:07.931Z,90.74
2023-05-21T01:12:35.592Z,90.73
2023-05-21T01:15:04.035Z,90.87
2023-05-21T01:17:31.868Z,90.29
2023-05-21T01:19:59.194Z,90.80
2023-05-21T01:22:29.001Z,90.33
2023-05-21T01:24:56.792Z,90.29
2023-05-21T01:27:23.512Z,90.21
2023-05-21T01:29:50.363Z,89.95
2023-05-21T01:32:44.214Z,89.98
2023-05-21T01:35:18.842Z,91.09
2023-05-21T01:37:52.273Z,90.32
2023-05-21T01:40:30.107Z,90.60
2023-05-21T01:42:57.286Z,89.86
2023-05-21T01:45:25.297Z,90.19
2023-05-21T01:47:54.155Z,90.61
2023-05-21T01:50:22.875Z,90.73
2023-05-21T01:52:54.856Z,90.67
2023-05-21T01:55:28.198Z,91.79
2023-05-21T01:57:55.841Z,91.19
2023-05-21T02:00:24.586Z,92.00
2023-05-21T02:02:51.952Z,91.49
2023-05-21T02:05:18.914Z,92.44
2023-05-21T02:07:47.902Z,91.07
2023-05-21T02:10:14.510Z,91.71
2023-05-21T02:12:41.938Z,92.33
2023-05-21T02:15:09.274Z,92.25
2023-05-21T02:17:38.167Z,92.13
2023-05-21T02:20:11.776Z,91.84
2023-05-21T02:22:43.910Z,91.38
2023-05-21T02:25:12.026Z,91.38
2023-05-21T02:27:39.608Z,92.84
2023-05-21T02:30:08.564Z,92.94
2023-05-21T02:32:35.623Z,92.73
2023-05-21T02:35:03.812Z,93.31
2023-05-21T02:37:33.938Z,93.10
2023-05-21T02:40:01.797Z,93.49
2023-05-21T02:42:28.385Z,92.65
2023-05-21T02:44:55.048Z,93.50
2023-05-21T02:47:23.635Z,93.69
2023-05-21T02:49:51.504Z,93.57
2023-05-21T02:52:19.734Z,93.37
2023-05-21T02:54:46.953Z,92.97
2023-05-21T02:57:13.757Z,93.27
2023-05-21T02:59:40.661Z,93.71
2023-05-21T03:02:07.522Z,93.42
2023-05-21T03:04:38.806Z,93.82
2023-05-21T03:07:06.167Z,93.95
2023-05-21T03:09:32.699Z,94.94
2023-05-21T03:11:59.200Z,94.97
2023-05-21T03:14:26.464Z,95.07
2023-05-21T03:16:53.075Z,93.86
2023-05-21T03:19:20.944Z,92.68
2023-05-21T03:21:49.058Z,92.61
2023-05-21T03:24:15.608Z,91.04
2023-05-21T03:26:42.323Z,90.62
2023-05-21T03:29:09.004Z,91.52
2023-05-21T03:31:35.937Z,92.31
2023-05-21T03:34:02.480Z,92.13
2023-05-21T03:36:29.129Z,91.97
2023-05-21T03:38:56.049Z,90.93
2023-05-21T03:41:22.628Z,92.22
2023-05-21T03:43:49.237Z,91.65
2023-05-21T03:46:15.972Z,91.30
2023-05-21T03:48:42.609Z,91.51
2023-05-21T03:51:09.608Z,90.66
2023-05-21T03:53:37.052Z,89.37
2023-05-21T03:56:03.664Z,88.98
2023-05-21T03:58:30.283Z,90.24
2023-05-21T04:00:56.826Z,90.71
2023-05-21T04:03:23.528Z,90.43
2023-05-21T04:05:50.181Z,91.14
2023-05-21T04:08:16.852Z,90.66
2023-05-21T04:10:43.628Z,90.50
2023-05-21T04:13:10.513Z,89.29
2023-05-21T04:15:38.665Z,88.24
2023-05-21T04:18:07.280Z,88.69
2023-05-21T04:20:33.953Z,87.17
2023-05-21T04:23:01.381Z,86.45
2023-05-21T04:25:28.551Z,85.85
2023-05-21T04:27:55.242Z,85.85
2023-05-21T04:30:22.059Z,85.21
2023-05-21T04:32:48.886Z,85.81
2023-05-21T04:35:15.601Z,85.13
2023-05-21T04:37:42.424Z,84.44
2023-05-21T04:40:09.841Z,83.22
2023-05-21T04:42:36.723Z,82.77
2023-05-21T04:45:03.666Z,82.48
2023-05-21T04:47:30.359Z,81.96
2023-05-21T04:49:57.317Z,81.72
2023-05-21T04:52:25.104Z,79.79
2023-05-21T04:54:51.838Z,79.73
2023-05-21T04:57:19.130Z,77.56
2023-05-21T04:59:46.985Z,77.96
2023-05-21T05:02:13.653Z,77.48
2023-05-21T05:04:40.463Z,76.60
2023-05-21T05:07:07.523Z,76.06
2023-05-21T05:09:34.060Z,74.65
2023-05-21T05:12:00.924Z,73.35
2023-05-21T05:14:27.676Z,72.41
2023-05-21T05:16:54.701Z,73.52
2023-05-21T05:19:21.454Z,72.07
2023-05-21T05:21:48.142Z,69.62
2023-05-21T05:24:16.200Z,69.22
2023-05-21T05:26:42.896Z,67.72
2023-05-21T05:29:09.828Z,67.04
2023-05-21T05:31:36.379Z,65.44
2023-05-21T05:34:02.949Z,62.25
2023-05-21T05:36:29.782Z,62.00
2023-05-21T05:38:56.392Z,60.06
2023-05-21T05:41:23.180Z,58.29
2023-05-21T05:43:49.913Z,56.59
2023-05-21T05:46:16.642Z,54.46
2023-05-21T05:48:43.509Z,53.99
2023-05-21T05:51:11.910Z,54.91
2023-05-21T05:53:38.736Z,54.48
2023-05-21T05:56:05.929Z,55.71
2023-05-21T05:58:32.770Z,55.43
2023-05-21T06:01:00.599Z,55.74
2023-05-21T06:03:28.222Z,54.29
2023-05-21T06:05:55.379Z,52.03
2023-05-21T06:08:21.938Z,53.05
2023-05-21T06:10:48.677Z,53.91
2023-05-21T06:13:15.218Z,52.74
2023-05-21T06:15:44.704Z,52.44
2023-05-21T06:18:11.707Z,50.78
2023-05-21T06:20:38.559Z,51.10
2023-05-21T06:23:06.476Z,48.16
2023-05-21T06:25:33.102Z,47.99
2023-05-21T06:27:59.690Z,49.06
2023-05-21T06:30:26.838Z,51.39
2023-05-21T06:32:53.611Z,50.20
2023-05-21T06:35:20.503Z,50.68
2023-05-21T06:37:48.650Z,51.88
2023-05-21T06:40:15.548Z,52.41
2023-05-21T06:42:42.083Z,52.66
2023-05-21T06:45:09.157Z,52.02
2023-05-21T06:47:35.940Z,52.00
2023-05-21T06:50:02.633Z,51.06
2023-05-21T06:52:31.655Z,51.13
2023-05-21T06:54:58.515Z,51.34
2023-05-21T06:57:25.038Z,50.86
2023-05-21T06:59:51.639Z,51.38
2023-05-21T07:02:18.257Z,52.49
2023-05-21T07:04:45.130Z,52.28
2023-05-21T07:07:11.913Z,52.69
2023-05-21T07:09:38.552Z,52.51
2023-05-21T07:12:05.559Z,52.04
2023-05-21T07:14:32.254Z,52.46
2023-05-21T07:16:59.057Z,51.88
2023-05-21T07:19:25.712Z,52.23
2023-05-21T07:21:52.646Z,54.70
2023-05-21T07:24:19.306Z,54.24
2023-05-21T07:26:46.080Z,53.59
2023-05-21T07:29:12.577Z,54.01
2023-05-21T07:31:39.422Z,53.05
2023-05-21T07:34:06.056Z,52.59
2023-05-21T07:36:33.795Z,51.02
2023-05-21T07:39:00.939Z,50.42
2023-05-21T07:41:27.471Z,47.20
2023-05-21T07:43:54.127Z,46.44
2023-05-21T07:46:20.859Z,45.05
2023-05-21T07:48:48.419Z,43.34
2023-05-21T07:51:16.560Z,42.84
2023-05-21T07:53:43.079Z,42.64
2023-05-21T07:56:09.967Z,42.89
2023-05-21T07:58:36.536Z,41.21
2023-05-21T08:01:03.152Z,41.92
2023-05-21T08:03:33.009Z,39.54
2023-05-21T08:06:00.005Z,38.51
2023-05-21T08:08:26.701Z,38.54
2023-05-21T08:10:53.286Z,39.99
2023-05-21T08:13:20.178Z,38.69
2023-05-21T08:15:47.101Z,39.24
2023-05-21T08:18:13.755Z,39.04
2023-05-21T08:20:41.348Z,39.59
2023-05-21T08:23:07.923Z,39.75
2023-05-21T08:25:34.972Z,40.74
2023-05-21T08:28:01.620Z,38.81
2023-05-21T08:30:28.356Z,37.89
2023-05-21T08:32:55.316Z,38.15
2023-05-21T08:35:22.100Z,37.98
2023-05-21T08:37:48.664Z,36.81
2023-05-21T08:40:15.672Z,37.85
2023-05-21T08:42:47.402Z,37.53
2023-05-21T08:45:18.525Z,37.81
2023-05-21T08:47:45.235Z,38.03
2023-05-21T08:50:13.792Z,35.92
2023-05-21T08:52:41.139Z,35.49
2023-05-21T08:55:08.983Z,36.54
2023-05-21T08:57:36.634Z,33.39
2023-05-21T09:00:06.346Z,32.13
2023-05-21T09:02:40.533Z,31.29
2023-05-21T09:05:09.313Z,31.41
2023-05-21T09:08:02.493Z,31.25
2023-05-21T09:10:34.746Z,29.64
2023-05-21T09:13:02.688Z,29.99
2023-05-21T09:15:29.794Z,30.75
2023-05-21T09:17:56.527Z,31.53
2023-05-21T09:20:27.322Z,31.54
2023-05-21T09:22:55.387Z,30.90
2023-05-21T09:25:25.186Z,29.84
2023-05-21T09:27:51.707Z,29.24
2023-05-21T09:30:21.023Z,29.39
2023-05-21T09:32:56.336Z,28.41
2023-05-21T09:35:23.151Z,26.01
2023-05-21T09:37:52.402Z,26.84
2023-05-21T09:40:21.602Z,28.03
2023-05-21T09:42:53.352Z,27.00
2023-05-21T09:45:21.591Z,27.64
2023-05-21T09:47:50.280Z,27.44
2023-05-21T09:50:27.874Z,26.42
2023-05-21T09:52:55.603Z,29.46
2023-05-21T09:55:23.467Z,29.53
2023-05-21T09:57:51.051Z,28.44
2023-05-21T10:00:23.298Z,30.45
2023-05-21T10:02:54.157Z,29.49
2023-05-21T10:05:21.350Z,28.32
2023-05-21T10:07:51.326Z,28.20
2023-05-21T10:10:21.102Z,28.13
2023-05-21T10:12:48.793Z,28.11
2023-05-21T10:15:17.377Z,28.17
2023-05-21T10:17:44.595Z,27.68
2023-05-21T10:20:12.509Z,27.87
2023-05-21T10:22:39.995Z,27.17
2023-05-21T10:25:07.947Z,25.93
2023-05-21T10:27:37.658Z,24.69
2023-05-21T10:30:05.867Z,29.58
2023-05-21T10:32:33.394Z,31.04
2023-05-21T10:35:02.008Z,33.12
2023-05-21T10:37:29.277Z,35.73
2023-05-21T10:39:56.585Z,35.20
2023-05-21T10:42:32.564Z,35.90
2023-05-21T10:45:07.896Z,36.18
2023-05-21T10:48:12.580Z,36.57
2023-05-21T10:51:08.221Z,34.05
2023-05-21T10:53:44.194Z,34.85
2023-05-21T10:56:29.567Z,36.92
2023-05-21T10:59:26.780Z,40.70
2023-05-21T11:01:54.169Z,38.29
2023-05-21T11:04:27.013Z,32.58
2023-05-21T11:06:53.604Z,30.71
2023-05-21T11:09:20.454Z,27.85
2023-05-21T11:11:58.145Z,26.60
2023-05-21T11:14:39.143Z,26.83
2023-05-21T11:17:40.225Z,26.38
2023-05-21T11:20:14.278Z,26.54
2023-05-21T11:22:41.158Z,27.46
2023-05-21T11:25:08.412Z,26.51
2023-05-21T11:27:38.741Z,27.92
2023-05-21T11:30:09.828Z,29.03
2023-05-21T11:32:41.175Z,28.71
2023-05-21T11:35:08.168Z,27.84
2023-05-21T11:37:35.109Z,27.50
2023-05-21T11:40:25.668Z,26.29
2023-05-21T11:42:53.835Z,28.11
2023-05-21T11:45:22.333Z,27.99
2023-05-21T11:47:50.084Z,28.59
2023-05-21T11:50:17.622Z,27.50
2023-05-21T11:52:44.801Z,28.18
2023-05-21T11:55:11.559Z,28.23
2023-05-21T11:57:41.732Z,27.42
2023-05-21T12:00:15.289Z,28.45
2023-05-21T12:02:51.247Z,29.30
2023-05-21T12:05:18.350Z,30.55
2023-05-21T12:07:50.029Z,31.66
2023-05-21T12:10:17.208Z,30.88
2023-05-21T12:12:54.697Z,29.92
2023-05-21T12:15:25.034Z,30.45
2023-05-21T12:17:53.197Z,30.46
2023-05-21T12:20:28.545Z,29.09
2023-05-21T12:22:57.063Z,30.40
2023-05-21T12:25:23.927Z,32.36
2023-05-21T12:27:58.764Z,32.37
2023-05-21T12:30:26.076Z,32.54
2023-05-21T12:32:52.779Z,34.41
2023-05-21T12:35:23.840Z,34.16
2023-05-21T12:37:51.114Z,34.41
2023-05-21T12:40:18.280Z,33.20
2023-05-21T12:42:45.295Z,34.35
2023-05-21T12:45:12.614Z,33.97
2023-05-21T12:47:39.288Z,34.41
2023-05-21T12:50:11.853Z,32.65
2023-05-21T12:52:40.542Z,33.14
2023-05-21T12:55:09.544Z,33.04
2023-05-21T12:57:38.720Z,31.15
2023-05-21T13:00:07.014Z,30.38
2023-05-21T13:02:35.852Z,31.20
2023-05-21T13:05:04.562Z,30.49
2023-05-21T13:07:32.961Z,32.18
2023-05-21T13:10:01.095Z,31.65
2023-05-21T13:12:29.757Z,34.19
2023-05-21T13:15:01.553Z,34.67
2023-05-21T13:17:28.746Z,34.24
2023-05-21T13:20:12.732Z,34.97
2023-05-21T13:22:43.857Z,36.31
2023-05-21T13:25:11.739Z,35.33
2023-05-21T13:27:39.579Z,34.18
2023-05-21T13:30:07.083Z,34.62
2023-05-21T13:32:34.465Z,35.40
2023-05-21T13:35:01.584Z,34.61
2023-05-21T13:37:28.261Z,34.27
2023-05-21T13:39:54.866Z,36.21
2023-05-21T13:42:21.489Z,34.69
2023-05-21T13:44:48.677Z,35.59
2023-05-21T13:47:15.673Z,35.72
2023-05-21T13:49:42.869Z,35.28
2023-05-21T13:52:10.109Z,38.31
2023-05-21T13:54:36.827Z,39.42
2023-05-21T13:57:03.919Z,37.24
2023-05-21T13:59:33.260Z,33.76
2023-05-21T14:02:00.852Z,33.49
2023-05-21T14:04:28.061Z,30.85
2023-05-21T14:06:54.897Z,31.19
2023-05-21T14:09:23.333Z,33.19
2023-05-21T14:11:50.182Z,33.98
2023-05-21T14:14:19.071Z,34.43
2023-05-21T14:16:47.148Z,34.04
2023-05-21T14:19:14.442Z,34.76
2023-05-21T14:21:41.824Z,35.11
2023-05-21T14:24:08.591Z,34.78
2023-05-21T14:26:42.648Z,33.85
2023-05-21T14:29:09.800Z,35.54
2023-05-21T14:31:36.647Z,34.30
2023-05-21T14:34:03.661Z,33.30
2023-05-21T14:36:30.217Z,33.83
2023-05-21T14:38:56.810Z,34.02
2023-05-21T14:41:27.190Z,35.69
2023-05-21T14:43:54.763Z,36.17
2023-05-21T14:46:22.382Z,38.09
2023-05-21T14:48:49.212Z,37.23
2023-05-21T14:51:16.020Z,37.73
2023-05-21T14:53:42.751Z,38.08
2023-05-21T14:56:09.580Z,38.19
2023-05-21T14:58:36.226Z,37.28
2023-05-21T15:01:04.272Z,38.28
2023-05-21T15:03:31.157Z,37.82
2023-05-21T15:05:58.576Z,38.38
2023-05-21T15:08:25.392Z,38.86
2023-05-21T15:10:51.998Z,38.44
2023-05-21T15:13:18.878Z,39.02
2023-05-21T15:15:45.507Z,40.03
2023-05-21T15:18:12.186Z,39.77
2023-05-21T15:20:39.110Z,39.82
2023-05-21T15:23:16.198Z,40.37
2023-05-21T15:25:44.785Z,41.18
2023-05-21T15:28:14.676Z,41.56
2023-05-21T15:30:41.375Z,40.52
2023-05-21T15:33:08.616Z,41.16
2023-05-21T15:35:36.352Z,41.56
2023-05-21T15:38:03.409Z,40.56
2023-05-21T15:40:30.066Z,40.21
2023-05-21T15:42:56.538Z,40.68
2023-05-21T15:45:24.879Z,39.98
2023-05-21T15:47:51.540Z,39.37
2023-05-21T15:50:18.271Z,38.95
2023-05-21T15:52:44.755Z,38.62
2023-05-21T15:55:11.435Z,39.21
2023-05-21T15:57:38.053Z,38.90
2023-05-21T16:00:05.049Z,39.54
2023-05-21T16:02:31.998Z,39.40
2023-05-21T16:04:59.076Z,40.11
2023-05-21T16:07:25.841Z,39.62
2023-05-21T16:09:52.538Z,39.43
2023-05-21T16:12:19.440Z,39.35
2023-05-21T16:14:49.765Z,39.46
2023-05-21T16:17:16.659Z,40.02
2023-05-21T16:19:43.494Z,39.25
2023-05-21T16:22:10.970Z,38.44
2023-05-21T16:24:37.915Z,39.12
2023-05-21T16:27:05.004Z,39.18
2023-05-21T16:29:31.970Z,39.31
2023-05-21T16:31:58.688Z,38.85
2023-05-21T16:34:25.640Z,39.75
2023-05-21T16:36:52.340Z,38.83
2023-05-21T16:39:19.030Z,39.34
2023-05-21T16:41:45.698Z,40.85
2023-05-21T16:44:12.582Z,39.97
2023-05-21T16:46:39.636Z,39.79
2023-05-21T16:49:07.147Z,40.24
2023-05-21T16:51:34.179Z,39.67
2023-05-21T16:54:02.386Z,40.89
2023-05-21T16:56:29.246Z,41.07
2023-05-21T16:58:56.140Z,41.59
2023-05-21T17:01:22.890Z,41.86
2023-05-21T17:03:49.659Z,42.49
2023-05-21T17:06:16.222Z,42.22
2023-05-21T17:08:42.862Z,42.50
2023-05-21T17:11:10.079Z,41.52
2023-05-21T17:13:36.691Z,41.32
2023-05-21T17:16:03.364Z,41.14
2023-05-21T17:18:31.256Z,41.34
2023-05-21T17:20:58.870Z,41.96
2023-05-21T17:23:25.839Z,42.03
2023-05-21T17:25:52.625Z,42.21
2023-05-21T17:28:19.432Z,42.38
2023-05-21T17:30:48.675Z,43.44
2023-05-21T17:33:16.176Z,43.29
2023-05-21T17:35:42.944Z,43.49
2023-05-21T17:38:10.346Z,44.80
2023-05-21T17:40:36.905Z,43.92
2023-05-21T17:43:04.581Z,44.03
2023-05-21T17:45:31.443Z,44.12
2023-05-21T17:47:59.974Z,44.86
2023-05-21T17:50:27.304Z,44.93
2023-05-21T17:52:53.885Z,44.66
2023-05-21T17:55:20.740Z,45.25
2023-05-21T17:57:47.229Z,45.38
2023-05-21T18:00:14.283Z,46.18
2023-05-21T18:02:41.380Z,46.14
2023-05-21T18:05:08.164Z,46.67
2023-05-21T18:07:34.708Z,46.17
2023-05-21T18:10:01.774Z,46.80
2023-05-21T18:12:28.399Z,47.60
2023-05-21T18:14:55.315Z,47.71
2023-05-21T18:17:22.334Z,47.99
2023-05-21T18:19:48.951Z,48.23
2023-05-21T18:22:15.558Z,48.56
2023-05-21T18:24:42.678Z,49.16
2023-05-21T18:27:09.119Z,48.61
2023-05-21T18:29:36.708Z,48.90
2023-05-21T18:32:04.129Z,49.88
2023-05-21T18:34:30.753Z,49.21
2023-05-21T18:36:58.760Z,49.67
2023-05-21T18:39:27.121Z,50.03
2023-05-21T18:42:08.907Z,50.50
2023-05-21T18:44:39.178Z,51.02
2023-05-21T18:47:07.580Z,50.69
2023-05-21T18:49:35.733Z,51.22
2023-05-21T18:52:02.485Z,51.67
2023-05-21T18:54:29.008Z,51.98
2023-05-21T18:56:59.535Z,51.41
2023-05-21T18:59:27.156Z,52.23
2023-05-21T19:01:54.538Z,52.39
2023-05-21T19:04:21.471Z,53.05
2023-05-21T19:06:48.238Z,52.80
2023-05-21T19:09:15.101Z,53.13
2023-05-21T19:11:41.870Z,53.62
2023-05-21T19:14:08.636Z,52.92
2023-05-21T19:16:35.540Z,53.39
2023-05-21T19:19:03.327Z,54.51
2023-05-21T19:21:30.066Z,54.30
2023-05-21T19:23:56.867Z,55.46
2023-05-21T19:26:24.221Z,55.30
2023-05-21T19:28:53.692Z,55.78
2023-05-21T19:31:21.112Z,56.05
2023-05-21T19:33:48.271Z,56.26
2023-05-21T19:36:15.289Z,56.77
2023-05-21T19:38:49.255Z,57.25
2023-05-21T19:41:19.857Z,56.65
2023-05-21T19:43:46.486Z,56.89
2023-05-21T19:46:15.971Z,56.93
2023-05-21T19:48:44.827Z,56.52
2023-05-21T19:51:11.460Z,57.57
2023-05-21T19:53:38.282Z,58.13
2023-05-21T19:56:04.821Z,58.60
2023-05-21T19:58:31.505Z,58.36
2023-05-21T20:00:59.309Z,58.41
2023-05-21T20:03:26.853Z,58.42
2023-05-21T20:05:53.846Z,59.17
2023-05-21T20:08:20.780Z,59.43
2023-05-21T20:10:50.337Z,58.90
2023-05-21T20:13:18.037Z,60.20
2023-05-21T20:15:44.683Z,59.27
2023-05-21T20:18:12.661Z,58.85
2023-05-21T20:20:40.915Z,58.96
2023-05-21T20:23:07.795Z,59.18
2023-05-21T20:25:34.316Z,59.24
2023-05-21T20:28:05.046Z,59.39
2023-05-21T20:30:33.185Z,58.40
2023-05-21T20:33:03.212Z,59.91
2023-05-21T20:35:30.159Z,60.13
2023-05-21T20:37:56.672Z,60.76
2023-05-21T20:40:23.255Z,62.21
2023-05-21T20:42:53.389Z,63.21
2023-05-21T20:45:21.125Z,63.52
2023-05-21T20:47:48.277Z,63.90
2023-05-21T20:50:17.423Z,64.17
2023-05-21T20:52:46.903Z,65.12
2023-05-21T20:55:14.597Z,65.24
2023-05-21T20:57:41.875Z,65.97
2023-05-21T21:00:10.935Z,66.17
2023-05-21T21:02:39.684Z,65.43
2023-05-21T21:05:10.542Z,66.35
2023-05-21T21:07:37.333Z,66.91
2023-05-21T21:10:04.384Z,67.04
2023-05-21T21:12:31.258Z,67.00
2023-05-21T21:14:57.794Z,67.81
2023-05-21T21:17:24.921Z,67.89
2023-05-21T21:19:51.493Z,68.22
2023-05-21T21:22:18.577Z,67.35
2023-05-21T21:24:45.566Z,68.17
2023-05-21T21:27:12.280Z,67.85
2023-05-21T21:29:38.806Z,68.18
2023-05-21T21:32:06.155Z,68.52
2023-05-21T21:34:32.601Z,69.30
2023-05-21T21:36:59.013Z,69.58
2023-05-21T21:39:26.814Z,69.60
2023-05-21T21:41:53.416Z,68.23
2023-05-21T21:44:19.996Z,68.75
2023-05-21T21:46:46.799Z,69.87
2023-05-21T21:49:14.404Z,70.56
2023-05-21T21:51:41.015Z,70.18
2023-05-21T21:54:07.434Z,70.06
2023-05-21T21:56:33.946Z,70.10
2023-05-21T21:59:00.522Z,70.49
2023-05-21T22:01:27.933Z,70.81
2023-05-21T22:03:54.439Z,71.26
2023-05-21T22:06:20.990Z,71.41
2023-05-21T22:08:47.653Z,71.30
2023-05-21T22:11:14.323Z,72.18
2023-05-21T22:13:41.758Z,72.00
2023-05-21T22:16:08.282Z,72.56
2023-05-21T22:18:41.013Z,73.33
2023-05-21T22:21:09.180Z,73.13
2023-05-21T22:23:36.669Z,73.78
2023-05-21T22:26:03.520Z,73.75
2023-05-21T22:28:30.003Z,74.25
2023-05-21T22:30:56.492Z,73.73
2023-05-21T22:33:23.009Z,74.27
2023-05-21T22:35:49.567Z,73.64
2023-05-21T22:38:16.055Z,72.85
2023-05-21T22:40:42.469Z,72.90
2023-05-21T22:43:08.918Z,73.20
2023-05-21T22:45:38.222Z,73.31
2023-05-21T22:48:08.479Z,72.78
2023-05-21T22:50:35.238Z,72.52
2023-05-21T22:53:01.805Z,72.83
2023-05-21T22:55:28.231Z,72.64
2023-05-21T22:57:54.679Z,72.71
2023-05-21T23:00:21.298Z,71.83
2023-05-21T23:02:48.189Z,71.78
2023-05-21T23:05:15.067Z,72.29
2023-05-21T23:07:42.768Z,72.46
2023-05-21T23:10:09.556Z,71.86
2023-05-21T23:12:36.909Z,72.01
2023-05-21T23:15:04.956Z,73.02
2023-05-21T23:17:32.199Z,72.33
2023-05-21T23:19:59.516Z,72.49
2023-05-21T23:22:26.381Z,73.01
2023-05-21T23:24:54.296Z,73.16
2023-05-21T23:27:21.244Z,73.82
2023-05-21T23:29:47.968Z,74.40
2023-05-21T23:32:14.881Z,74.30
2023-05-21T23:34:41.955Z,74.52
2023-05-21T23:37:08.641Z,74.42
2023-05-21T23:39:35.285Z,74.78
2023-05-21T23:42:02.117Z,75.18
2023-05-21T23:44:28.943Z,75.53
2023-05-21T23:46:55.767Z,75.84
2023-05-21T23:49:22.658Z,76.26
2023-05-21T23:51:52.302Z,76.66
2023-05-21T23:54:19.275Z,77.14
2023-05-21T23:56:46.472Z,77.56
2023-05-21T23:59:15.672Z,78.05
